sensor_id;sensor_type;location;lat;lon;timestamp;P1;durP1;ratioP1;P2;durP2;ratioP2
66175;SDS011;52977;44.816;20.538;2024-02-04T00:00:24;19.67;;;9.65;;
66175;SDS011;52977;44.816;20.538;2024-02-04T00:02:50;20.42;;;10.15;;
66175;SDS011;52977;44.816;20.538;2024-02-04T00:05:16;20.40;;;10.30;;
66175;SDS011;52977;44.816;20.538;2024-02-04T00:07:44;22.20;;;10.80;;
66175;SDS011;52977;44.816;20.538;2024-02-04T00:10:11;20.17;;;10.13;;
66175;SDS011;52977;44.816;20.538;2024-02-04T00:12:38;20.83;;;10.80;;
66175;SDS011;52977;44.816;20.538;2024-02-04T00:15:05;25.95;;;10.90;;
66175;SDS011;52977;44.816;20.538;2024-02-04T00:17:32;20.27;;;10.57;;
66175;SDS011;52977;44.816;20.538;2024-02-04T00:20:00;21.10;;;10.65;;
66175;SDS011;52977;44.816;20.538;2024-02-04T00:22:27;22.45;;;10.90;;
66175;SDS011;52977;44.816;20.538;2024-02-04T00:24:53;21.65;;;10.57;;
66175;SDS011;52977;44.816;20.538;2024-02-04T00:27:20;22.55;;;11.23;;
66175;SDS011;52977;44.816;20.538;2024-02-04T00:29:46;23.45;;;11.85;;
66175;SDS011;52977;44.816;20.538;2024-02-04T00:32:13;23.55;;;12.63;;
66175;SDS011;52977;44.816;20.538;2024-02-04T00:34:39;22.15;;;11.38;;
66175;SDS011;52977;44.816;20.538;2024-02-04T00:37:05;25.70;;;12.07;;
66175;SDS011;52977;44.816;20.538;2024-02-04T00:39:32;24.65;;;11.90;;
66175;SDS011;52977;44.816;20.538;2024-02-04T00:41:58;29.40;;;12.23;;
66175;SDS011;52977;44.816;20.538;2024-02-04T00:44:25;27.45;;;12.52;;
66175;SDS011;52977;44.816;20.538;2024-02-04T00:46:51;27.08;;;12.57;;
66175;SDS011;52977;44.816;20.538;2024-02-04T00:49:17;26.15;;;12.55;;
66175;SDS011;52977;44.816;20.538;2024-02-04T00:51:43;27.70;;;12.82;;
66175;SDS011;52977;44.816;20.538;2024-02-04T00:54:10;27.60;;;12.80;;
66175;SDS011;52977;44.816;20.538;2024-02-04T00:56:36;25.13;;;12.05;;
66175;SDS011;52977;44.816;20.538;2024-02-04T00:59:04;25.30;;;12.05;;
66175;SDS011;52977;44.816;20.538;2024-02-04T01:01:31;23.50;;;10.82;;
66175;SDS011;52977;44.816;20.538;2024-02-04T01:03:58;21.67;;;11.07;;
66175;SDS011;52977;44.816;20.538;2024-02-04T01:06:24;23.70;;;10.90;;
66175;SDS011;52977;44.816;20.538;2024-02-04T01:08:51;21.30;;;11.02;;
66175;SDS011;52977;44.816;20.538;2024-02-04T01:11:17;19.45;;;9.82;;
66175;SDS011;52977;44.816;20.538;2024-02-04T01:13:43;20.90;;;10.15;;
66175;SDS011;52977;44.816;20.538;2024-02-04T01:16:11;20.50;;;9.73;;
66175;SDS011;52977;44.816;20.538;2024-02-04T01:18:38;23.88;;;9.95;;
66175;SDS011;52977;44.816;20.538;2024-02-04T01:21:04;18.38;;;9.23;;
66175;SDS011;52977;44.816;20.538;2024-02-04T01:23:31;21.88;;;9.43;;
66175;SDS011;52977;44.816;20.538;2024-02-04T01:25:57;18.13;;;8.95;;
66175;SDS011;52977;44.816;20.538;2024-02-04T01:28:23;19.23;;;9.07;;
66175;SDS011;52977;44.816;20.538;2024-02-04T01:30:49;18.10;;;8.88;;
66175;SDS011;52977;44.816;20.538;2024-02-04T01:33:15;17.65;;;8.48;;
66175;SDS011;52977;44.816;20.538;2024-02-04T01:35:41;18.23;;;9.35;;
66175;SDS011;52977;44.816;20.538;2024-02-04T01:38:07;21.63;;;9.07;;
66175;SDS011;52977;44.816;20.538;2024-02-04T01:40:34;20.60;;;8.25;;
66175;SDS011;52977;44.816;20.538;2024-02-04T01:43:01;18.10;;;9.20;;
66175;SDS011;52977;44.816;20.538;2024-02-04T01:45:28;24.35;;;9.98;;
66175;SDS011;52977;44.816;20.538;2024-02-04T01:47:54;22.60;;;9.18;;
66175;SDS011;52977;44.816;20.538;2024-02-04T01:50:20;24.13;;;10.38;;
66175;SDS011;52977;44.816;20.538;2024-02-04T01:52:48;22.27;;;10.20;;
66175;SDS011;52977;44.816;20.538;2024-02-04T01:55:16;22.75;;;10.52;;
66175;SDS011;52977;44.816;20.538;2024-02-04T01:57:44;22.98;;;10.95;;
66175;SDS011;52977;44.816;20.538;2024-02-04T02:00:13;23.13;;;10.10;;
66175;SDS011;52977;44.816;20.538;2024-02-04T02:02:39;20.13;;;9.98;;
66175;SDS011;52977;44.816;20.538;2024-02-04T02:05:06;27.38;;;11.73;;
66175;SDS011;52977;44.816;20.538;2024-02-04T02:07:34;23.88;;;10.65;;
66175;SDS011;52977;44.816;20.538;2024-02-04T02:10:00;22.48;;;10.88;;
66175;SDS011;52977;44.816;20.538;2024-02-04T02:12:27;22.60;;;10.63;;
66175;SDS011;52977;44.816;20.538;2024-02-04T02:15:00;23.50;;;10.80;;
66175;SDS011;52977;44.816;20.538;2024-02-04T02:17:35;22.20;;;10.50;;
66175;SDS011;52977;44.816;20.538;2024-02-04T02:20:13;22.50;;;10.82;;
66175;SDS011;52977;44.816;20.538;2024-02-04T02:23:03;22.58;;;10.20;;
66175;SDS011;52977;44.816;20.538;2024-02-04T02:25:33;19.17;;;9.88;;
66175;SDS011;52977;44.816;20.538;2024-02-04T02:28:01;20.90;;;9.65;;
66175;SDS011;52977;44.816;20.538;2024-02-04T02:30:28;17.33;;;8.43;;
66175;SDS011;52977;44.816;20.538;2024-02-04T02:32:54;17.83;;;9.02;;
66175;SDS011;52977;44.816;20.538;2024-02-04T02:35:20;17.83;;;9.20;;
66175;SDS011;52977;44.816;20.538;2024-02-04T02:40:37;20.85;;;8.68;;
66175;SDS011;52977;44.816;20.538;2024-02-04T02:43:07;20.02;;;8.70;;
66175;SDS011;52977;44.816;20.538;2024-02-04T02:45:37;16.27;;;8.13;;
66175;SDS011;52977;44.816;20.538;2024-02-04T02:48:07;16.05;;;7.88;;
66175;SDS011;52977;44.816;20.538;2024-02-04T02:50:35;16.95;;;7.72;;
66175;SDS011;52977;44.816;20.538;2024-02-04T02:53:02;15.95;;;7.90;;
66175;SDS011;52977;44.816;20.538;2024-02-04T02:55:28;16.85;;;7.93;;
66175;SDS011;52977;44.816;20.538;2024-02-04T02:57:55;14.50;;;7.80;;
66175;SDS011;52977;44.816;20.538;2024-02-04T03:00:21;14.35;;;7.63;;
66175;SDS011;52977;44.816;20.538;2024-02-04T03:02:47;16.65;;;7.65;;
66175;SDS011;52977;44.816;20.538;2024-02-04T03:05:15;13.07;;;7.13;;
66175;SDS011;52977;44.816;20.538;2024-02-04T03:07:41;13.85;;;7.18;;
66175;SDS011;52977;44.816;20.538;2024-02-04T03:10:08;15.38;;;6.93;;
66175;SDS011;52977;44.816;20.538;2024-02-04T03:12:35;17.35;;;7.65;;
66175;SDS011;52977;44.816;20.538;2024-02-04T03:15:01;15.38;;;7.35;;
66175;SDS011;52977;44.816;20.538;2024-02-04T03:17:28;15.73;;;7.30;;
66175;SDS011;52977;44.816;20.538;2024-02-04T03:19:54;13.65;;;6.82;;
66175;SDS011;52977;44.816;20.538;2024-02-04T03:22:21;21.55;;;7.57;;
66175;SDS011;52977;44.816;20.538;2024-02-04T03:24:48;12.95;;;6.47;;
66175;SDS011;52977;44.816;20.538;2024-02-04T03:27:16;11.95;;;5.90;;
66175;SDS011;52977;44.816;20.538;2024-02-04T03:29:44;14.52;;;6.80;;
66175;SDS011;52977;44.816;20.538;2024-02-04T03:32:10;14.23;;;6.10;;
66175;SDS011;52977;44.816;20.538;2024-02-04T03:34:37;13.10;;;6.28;;
66175;SDS011;52977;44.816;20.538;2024-02-04T03:37:05;12.80;;;6.60;;
66175;SDS011;52977;44.816;20.538;2024-02-04T03:39:32;12.32;;;6.13;;
66175;SDS011;52977;44.816;20.538;2024-02-04T03:41:58;13.63;;;5.43;;
66175;SDS011;52977;44.816;20.538;2024-02-04T03:44:24;11.13;;;5.88;;
66175;SDS011;52977;44.816;20.538;2024-02-04T03:46:51;13.80;;;5.60;;
66175;SDS011;52977;44.816;20.538;2024-02-04T03:49:17;10.57;;;5.40;;
66175;SDS011;52977;44.816;20.538;2024-02-04T03:51:44;13.18;;;6.18;;
66175;SDS011;52977;44.816;20.538;2024-02-04T03:54:10;13.05;;;5.68;;
66175;SDS011;52977;44.816;20.538;2024-02-04T03:56:36;11.85;;;5.78;;
66175;SDS011;52977;44.816;20.538;2024-02-04T03:59:03;13.55;;;6.00;;
66175;SDS011;52977;44.816;20.538;2024-02-04T04:01:29;12.10;;;5.32;;
66175;SDS011;52977;44.816;20.538;2024-02-04T04:03:56;10.32;;;5.50;;
66175;SDS011;52977;44.816;20.538;2024-02-04T04:06:22;14.88;;;6.22;;
66175;SDS011;52977;44.816;20.538;2024-02-04T04:08:48;12.52;;;5.93;;
66175;SDS011;52977;44.816;20.538;2024-02-04T04:11:14;13.07;;;5.82;;
66175;SDS011;52977;44.816;20.538;2024-02-04T04:13:41;9.45;;;5.15;;
66175;SDS011;52977;44.816;20.538;2024-02-04T04:16:07;11.57;;;5.15;;
66175;SDS011;52977;44.816;20.538;2024-02-04T04:18:33;10.90;;;5.30;;
66175;SDS011;52977;44.816;20.538;2024-02-04T04:21:00;9.50;;;4.78;;
66175;SDS011;52977;44.816;20.538;2024-02-04T04:23:27;9.68;;;4.63;;
66175;SDS011;52977;44.816;20.538;2024-02-04T04:25:53;13.32;;;4.40;;
66175;SDS011;52977;44.816;20.538;2024-02-04T04:28:19;9.43;;;4.60;;
66175;SDS011;52977;44.816;20.538;2024-02-04T04:30:45;9.65;;;4.55;;
66175;SDS011;52977;44.816;20.538;2024-02-04T04:33:12;10.32;;;4.45;;
66175;SDS011;52977;44.816;20.538;2024-02-04T04:35:39;7.65;;;3.80;;
66175;SDS011;52977;44.816;20.538;2024-02-04T04:38:05;9.70;;;4.45;;
66175;SDS011;52977;44.816;20.538;2024-02-04T04:40:31;7.22;;;3.55;;
66175;SDS011;52977;44.816;20.538;2024-02-04T04:42:57;8.77;;;4.10;;
66175;SDS011;52977;44.816;20.538;2024-02-04T04:45:24;9.05;;;4.25;;
66175;SDS011;52977;44.816;20.538;2024-02-04T04:47:50;8.40;;;4.20;;
66175;SDS011;52977;44.816;20.538;2024-02-04T04:50:16;8.80;;;4.43;;
66175;SDS011;52977;44.816;20.538;2024-02-04T04:52:42;11.27;;;5.50;;
66175;SDS011;52977;44.816;20.538;2024-02-04T04:55:09;9.98;;;4.75;;
66175;SDS011;52977;44.816;20.538;2024-02-04T04:57:34;12.20;;;4.68;;
66175;SDS011;52977;44.816;20.538;2024-02-04T05:00:00;11.25;;;4.95;;
66175;SDS011;52977;44.816;20.538;2024-02-04T05:02:35;12.18;;;5.40;;
66175;SDS011;52977;44.816;20.538;2024-02-04T05:05:02;11.68;;;4.80;;
66175;SDS011;52977;44.816;20.538;2024-02-04T05:07:28;11.63;;;5.00;;
66175;SDS011;52977;44.816;20.538;2024-02-04T05:09:54;9.60;;;4.65;;
66175;SDS011;52977;44.816;20.538;2024-02-04T05:12:20;10.15;;;4.63;;
66175;SDS011;52977;44.816;20.538;2024-02-04T05:14:46;9.05;;;3.95;;
66175;SDS011;52977;44.816;20.538;2024-02-04T05:17:13;9.25;;;3.90;;
66175;SDS011;52977;44.816;20.538;2024-02-04T05:19:42;6.78;;;3.88;;
66175;SDS011;52977;44.816;20.538;2024-02-04T05:22:08;8.40;;;3.70;;
66175;SDS011;52977;44.816;20.538;2024-02-04T05:24:34;9.35;;;4.53;;
66175;SDS011;52977;44.816;20.538;2024-02-04T05:27:00;9.95;;;4.50;;
66175;SDS011;52977;44.816;20.538;2024-02-04T05:29:27;10.23;;;4.68;;
66175;SDS011;52977;44.816;20.538;2024-02-04T05:31:53;9.10;;;3.80;;
66175;SDS011;52977;44.816;20.538;2024-02-04T05:34:19;8.73;;;4.13;;
66175;SDS011;52977;44.816;20.538;2024-02-04T05:36:45;7.65;;;3.90;;
66175;SDS011;52977;44.816;20.538;2024-02-04T05:39:12;10.20;;;4.07;;
66175;SDS011;52977;44.816;20.538;2024-02-04T05:41:39;7.53;;;3.90;;
66175;SDS011;52977;44.816;20.538;2024-02-04T05:44:06;10.18;;;3.88;;
66175;SDS011;52977;44.816;20.538;2024-02-04T05:46:38;8.07;;;4.38;;
66175;SDS011;52977;44.816;20.538;2024-02-04T05:49:05;9.45;;;4.05;;
66175;SDS011;52977;44.816;20.538;2024-02-04T05:51:31;10.82;;;4.72;;
66175;SDS011;52977;44.816;20.538;2024-02-04T05:53:59;8.50;;;4.28;;
66175;SDS011;52977;44.816;20.538;2024-02-04T05:56:25;9.25;;;4.30;;
66175;SDS011;52977;44.816;20.538;2024-02-04T05:58:51;10.15;;;4.43;;
66175;SDS011;52977;44.816;20.538;2024-02-04T06:01:18;8.15;;;4.15;;
66175;SDS011;52977;44.816;20.538;2024-02-04T06:03:44;7.80;;;3.60;;
66175;SDS011;52977;44.816;20.538;2024-02-04T06:06:14;7.63;;;3.85;;
66175;SDS011;52977;44.816;20.538;2024-02-04T06:08:42;9.45;;;3.97;;
66175;SDS011;52977;44.816;20.538;2024-02-04T06:11:11;8.40;;;4.22;;
66175;SDS011;52977;44.816;20.538;2024-02-04T06:13:39;10.77;;;3.90;;
66175;SDS011;52977;44.816;20.538;2024-02-04T06:16:07;7.75;;;4.18;;
66175;SDS011;52977;44.816;20.538;2024-02-04T06:18:34;8.50;;;3.83;;
66175;SDS011;52977;44.816;20.538;2024-02-04T06:21:03;7.75;;;3.70;;
66175;SDS011;52977;44.816;20.538;2024-02-04T06:23:30;8.65;;;3.60;;
66175;SDS011;52977;44.816;20.538;2024-02-04T06:25:56;7.50;;;4.03;;
66175;SDS011;52977;44.816;20.538;2024-02-04T06:28:22;6.88;;;3.50;;
66175;SDS011;52977;44.816;20.538;2024-02-04T06:30:49;5.95;;;3.03;;
66175;SDS011;52977;44.816;20.538;2024-02-04T06:33:15;6.63;;;3.22;;
66175;SDS011;52977;44.816;20.538;2024-02-04T06:35:42;6.82;;;3.00;;
66175;SDS011;52977;44.816;20.538;2024-02-04T06:38:08;7.97;;;3.13;;
66175;SDS011;52977;44.816;20.538;2024-02-04T06:40:33;9.70;;;3.60;;
66175;SDS011;52977;44.816;20.538;2024-02-04T06:43:00;8.63;;;3.83;;
66175;SDS011;52977;44.816;20.538;2024-02-04T06:45:26;7.47;;;3.67;;
66175;SDS011;52977;44.816;20.538;2024-02-04T06:47:52;8.07;;;3.90;;
66175;SDS011;52977;44.816;20.538;2024-02-04T06:50:18;9.68;;;3.92;;
66175;SDS011;52977;44.816;20.538;2024-02-04T06:52:45;9.27;;;4.38;;
66175;SDS011;52977;44.816;20.538;2024-02-04T06:55:12;9.02;;;5.10;;
66175;SDS011;52977;44.816;20.538;2024-02-04T06:57:38;13.57;;;5.82;;
66175;SDS011;52977;44.816;20.538;2024-02-04T07:00:06;11.05;;;5.32;;
66175;SDS011;52977;44.816;20.538;2024-02-04T07:02:34;11.02;;;5.90;;
66175;SDS011;52977;44.816;20.538;2024-02-04T07:05:01;12.15;;;6.10;;
66175;SDS011;52977;44.816;20.538;2024-02-04T07:07:27;13.50;;;5.07;;
66175;SDS011;52977;44.816;20.538;2024-02-04T07:09:53;7.97;;;4.07;;
66175;SDS011;52977;44.816;20.538;2024-02-04T07:12:19;10.88;;;4.93;;
66175;SDS011;52977;44.816;20.538;2024-02-04T07:14:46;9.63;;;4.63;;
66175;SDS011;52977;44.816;20.538;2024-02-04T07:17:12;10.00;;;4.60;;
66175;SDS011;52977;44.816;20.538;2024-02-04T07:19:39;8.07;;;4.47;;
66175;SDS011;52977;44.816;20.538;2024-02-04T07:22:05;11.18;;;5.00;;
66175;SDS011;52977;44.816;20.538;2024-02-04T07:24:31;9.52;;;4.63;;
66175;SDS011;52977;44.816;20.538;2024-02-04T07:26:58;9.80;;;4.88;;
66175;SDS011;52977;44.816;20.538;2024-02-04T07:29:24;11.27;;;5.10;;
66175;SDS011;52977;44.816;20.538;2024-02-04T07:31:50;9.25;;;4.80;;
66175;SDS011;52977;44.816;20.538;2024-02-04T07:34:16;9.93;;;5.10;;
66175;SDS011;52977;44.816;20.538;2024-02-04T07:36:43;9.73;;;4.43;;
66175;SDS011;52977;44.816;20.538;2024-02-04T07:39:10;12.18;;;5.55;;
66175;SDS011;52977;44.816;20.538;2024-02-04T07:41:37;9.88;;;4.40;;
66175;SDS011;52977;44.816;20.538;2024-02-04T07:44:03;11.50;;;5.13;;
66175;SDS011;52977;44.816;20.538;2024-02-04T07:46:30;11.13;;;5.10;;
66175;SDS011;52977;44.816;20.538;2024-02-04T07:48:57;11.27;;;5.22;;
66175;SDS011;52977;44.816;20.538;2024-02-04T07:51:23;12.25;;;5.85;;
66175;SDS011;52977;44.816;20.538;2024-02-04T07:53:49;11.07;;;5.82;;
66175;SDS011;52977;44.816;20.538;2024-02-04T07:56:16;10.68;;;5.32;;
66175;SDS011;52977;44.816;20.538;2024-02-04T07:58:42;11.10;;;5.28;;
66175;SDS011;52977;44.816;20.538;2024-02-04T08:01:08;13.50;;;6.60;;
66175;SDS011;52977;44.816;20.538;2024-02-04T08:03:35;12.77;;;6.18;;
66175;SDS011;52977;44.816;20.538;2024-02-04T08:06:01;9.75;;;4.82;;
66175;SDS011;52977;44.816;20.538;2024-02-04T08:08:28;12.48;;;5.70;;
66175;SDS011;52977;44.816;20.538;2024-02-04T08:10:54;15.60;;;6.70;;
66175;SDS011;52977;44.816;20.538;2024-02-04T08:13:21;15.95;;;6.88;;
66175;SDS011;52977;44.816;20.538;2024-02-04T08:15:47;13.20;;;6.25;;
66175;SDS011;52977;44.816;20.538;2024-02-04T08:18:13;9.52;;;5.15;;
66175;SDS011;52977;44.816;20.538;2024-02-04T08:20:39;9.18;;;4.72;;
66175;SDS011;52977;44.816;20.538;2024-02-04T08:23:06;10.02;;;4.97;;
66175;SDS011;52977;44.816;20.538;2024-02-04T08:25:32;11.02;;;4.80;;
66175;SDS011;52977;44.816;20.538;2024-02-04T08:27:58;10.80;;;5.00;;
66175;SDS011;52977;44.816;20.538;2024-02-04T08:30:24;11.48;;;5.18;;
66175;SDS011;52977;44.816;20.538;2024-02-04T08:32:51;12.95;;;5.35;;
66175;SDS011;52977;44.816;20.538;2024-02-04T08:35:17;12.00;;;5.05;;
66175;SDS011;52977;44.816;20.538;2024-02-04T08:37:43;10.70;;;4.75;;
66175;SDS011;52977;44.816;20.538;2024-02-04T08:40:10;10.65;;;4.70;;
66175;SDS011;52977;44.816;20.538;2024-02-04T08:42:36;8.73;;;4.72;;
66175;SDS011;52977;44.816;20.538;2024-02-04T08:45:02;11.77;;;4.20;;
66175;SDS011;52977;44.816;20.538;2024-02-04T08:47:28;10.00;;;4.18;;
66175;SDS011;52977;44.816;20.538;2024-02-04T08:49:54;9.05;;;3.97;;
66175;SDS011;52977;44.816;20.538;2024-02-04T08:52:20;8.60;;;3.78;;
66175;SDS011;52977;44.816;20.538;2024-02-04T08:54:46;8.98;;;4.65;;
66175;SDS011;52977;44.816;20.538;2024-02-04T08:57:11;8.27;;;4.00;;
66175;SDS011;52977;44.816;20.538;2024-02-04T08:59:38;9.25;;;3.83;;
66175;SDS011;52977;44.816;20.538;2024-02-04T09:02:03;9.25;;;4.25;;
66175;SDS011;52977;44.816;20.538;2024-02-04T09:04:29;12.52;;;5.40;;
66175;SDS011;52977;44.816;20.538;2024-02-04T09:06:56;9.45;;;4.22;;
66175;SDS011;52977;44.816;20.538;2024-02-04T09:09:22;8.88;;;3.97;;
66175;SDS011;52977;44.816;20.538;2024-02-04T09:11:48;7.47;;;3.55;;
66175;SDS011;52977;44.816;20.538;2024-02-04T09:14:14;8.43;;;2.90;;
66175;SDS011;52977;44.816;20.538;2024-02-04T09:16:41;10.95;;;3.83;;
66175;SDS011;52977;44.816;20.538;2024-02-04T09:19:06;7.35;;;3.33;;
66175;SDS011;52977;44.816;20.538;2024-02-04T09:21:32;6.93;;;3.15;;
66175;SDS011;52977;44.816;20.538;2024-02-04T09:23:58;7.00;;;3.13;;
66175;SDS011;52977;44.816;20.538;2024-02-04T09:26:23;7.85;;;3.13;;
66175;SDS011;52977;44.816;20.538;2024-02-04T09:28:49;7.05;;;3.08;;
66175;SDS011;52977;44.816;20.538;2024-02-04T09:31:15;7.45;;;3.35;;
66175;SDS011;52977;44.816;20.538;2024-02-04T09:33:41;8.27;;;3.45;;
66175;SDS011;52977;44.816;20.538;2024-02-04T09:36:07;9.95;;;3.25;;
66175;SDS011;52977;44.816;20.538;2024-02-04T09:38:33;9.40;;;4.72;;
66175;SDS011;52977;44.816;20.538;2024-02-04T09:41:00;8.77;;;4.20;;
66175;SDS011;52977;44.816;20.538;2024-02-04T09:43:26;9.48;;;3.65;;
66175;SDS011;52977;44.816;20.538;2024-02-04T09:45:52;6.50;;;3.38;;
66175;SDS011;52977;44.816;20.538;2024-02-04T09:48:18;7.55;;;3.80;;
66175;SDS011;52977;44.816;20.538;2024-02-04T09:50:46;5.45;;;2.63;;
66175;SDS011;52977;44.816;20.538;2024-02-04T09:53:14;6.00;;;3.10;;
66175;SDS011;52977;44.816;20.538;2024-02-04T09:55:43;9.68;;;3.53;;
66175;SDS011;52977;44.816;20.538;2024-02-04T09:58:11;10.30;;;4.18;;
66175;SDS011;52977;44.816;20.538;2024-02-04T10:00:38;9.98;;;4.20;;
66175;SDS011;52977;44.816;20.538;2024-02-04T10:03:05;12.02;;;4.90;;
66175;SDS011;52977;44.816;20.538;2024-02-04T10:05:32;9.80;;;4.88;;
66175;SDS011;52977;44.816;20.538;2024-02-04T10:07:58;13.80;;;5.53;;
66175;SDS011;52977;44.816;20.538;2024-02-04T10:10:24;11.90;;;5.97;;
66175;SDS011;52977;44.816;20.538;2024-02-04T10:12:51;12.15;;;5.78;;
66175;SDS011;52977;44.816;20.538;2024-02-04T10:15:17;13.18;;;5.63;;
66175;SDS011;52977;44.816;20.538;2024-02-04T10:17:46;13.25;;;5.25;;
66175;SDS011;52977;44.816;20.538;2024-02-04T10:20:13;10.65;;;5.68;;
66175;SDS011;52977;44.816;20.538;2024-02-04T10:22:39;12.23;;;5.70;;
66175;SDS011;52977;44.816;20.538;2024-02-04T10:25:06;13.02;;;5.90;;
66175;SDS011;52977;44.816;20.538;2024-02-04T10:27:34;12.57;;;6.18;;
66175;SDS011;52977;44.816;20.538;2024-02-04T10:30:01;13.73;;;6.32;;
66175;SDS011;52977;44.816;20.538;2024-02-04T10:32:27;12.52;;;6.18;;
66175;SDS011;52977;44.816;20.538;2024-02-04T10:34:54;11.23;;;5.65;;
66175;SDS011;52977;44.816;20.538;2024-02-04T10:37:20;13.07;;;6.32;;
66175;SDS011;52977;44.816;20.538;2024-02-04T10:39:46;12.52;;;6.07;;
66175;SDS011;52977;44.816;20.538;2024-02-04T10:42:13;12.60;;;5.97;;
66175;SDS011;52977;44.816;20.538;2024-02-04T10:44:43;16.60;;;5.97;;
66175;SDS011;52977;44.816;20.538;2024-02-04T10:47:13;13.25;;;6.00;;
66175;SDS011;52977;44.816;20.538;2024-02-04T10:49:49;13.85;;;5.78;;
66175;SDS011;52977;44.816;20.538;2024-02-04T10:52:37;13.30;;;6.43;;
66175;SDS011;52977;44.816;20.538;2024-02-04T10:55:08;15.90;;;5.50;;
66175;SDS011;52977;44.816;20.538;2024-02-04T10:57:37;12.80;;;6.25;;
66175;SDS011;52977;44.816;20.538;2024-02-04T11:00:03;16.95;;;6.97;;
66175;SDS011;52977;44.816;20.538;2024-02-04T11:02:34;14.10;;;6.50;;
66175;SDS011;52977;44.816;20.538;2024-02-04T11:05:02;11.75;;;6.30;;
66175;SDS011;52977;44.816;20.538;2024-02-04T11:07:33;12.32;;;6.25;;
66175;SDS011;52977;44.816;20.538;2024-02-04T11:10:03;11.55;;;6.18;;
66175;SDS011;52977;44.816;20.538;2024-02-04T11:12:31;15.95;;;7.22;;
66175;SDS011;52977;44.816;20.538;2024-02-04T11:15:03;14.53;;;6.97;;
66175;SDS011;52977;44.816;20.538;2024-02-04T11:26:03;10.10;;;4.32;;
66175;SDS011;52977;44.816;20.538;2024-02-04T11:28:31;12.88;;;5.32;;
66175;SDS011;52977;44.816;20.538;2024-02-04T11:30:58;10.27;;;4.55;;
66175;SDS011;52977;44.816;20.538;2024-02-04T11:33:25;11.23;;;4.78;;
66175;SDS011;52977;44.816;20.538;2024-02-04T11:38:30;7.95;;;4.10;;
66175;SDS011;52977;44.816;20.538;2024-02-04T11:40:57;7.57;;;3.20;;
66175;SDS011;52977;44.816;20.538;2024-02-04T11:43:24;7.43;;;3.67;;
66175;SDS011;52977;44.816;20.538;2024-02-04T11:45:51;5.57;;;2.20;;
66175;SDS011;52977;44.816;20.538;2024-02-04T11:48:37;4.93;;;2.35;;
66175;SDS011;52977;44.816;20.538;2024-02-04T11:51:04;7.57;;;2.05;;
66175;SDS011;52977;44.816;20.538;2024-02-04T11:53:31;4.78;;;2.20;;
66175;SDS011;52977;44.816;20.538;2024-02-04T11:55:59;3.45;;;1.60;;
66175;SDS011;52977;44.816;20.538;2024-02-04T11:58:29;10.57;;;2.05;;
66175;SDS011;52977;44.816;20.538;2024-02-04T12:00:57;4.30;;;1.88;;
66175;SDS011;52977;44.816;20.538;2024-02-04T12:03:30;6.13;;;1.98;;
66175;SDS011;52977;44.816;20.538;2024-02-04T12:05:58;4.75;;;1.95;;
66175;SDS011;52977;44.816;20.538;2024-02-04T12:08:26;3.15;;;1.60;;
66175;SDS011;52977;44.816;20.538;2024-02-04T12:10:53;5.15;;;1.80;;
66175;SDS011;52977;44.816;20.538;2024-02-04T12:13:20;5.68;;;1.77;;
66175;SDS011;52977;44.816;20.538;2024-02-04T12:15:49;4.35;;;1.65;;
66175;SDS011;52977;44.816;20.538;2024-02-04T12:18:16;5.60;;;1.70;;
66175;SDS011;52977;44.816;20.538;2024-02-04T12:20:46;3.20;;;1.40;;
66175;SDS011;52977;44.816;20.538;2024-02-04T12:23:32;4.57;;;1.60;;
66175;SDS011;52977;44.816;20.538;2024-02-04T12:25:59;3.40;;;1.42;;
66175;SDS011;52977;44.816;20.538;2024-02-04T12:28:26;3.95;;;1.65;;
66175;SDS011;52977;44.816;20.538;2024-02-04T12:30:55;3.53;;;1.75;;
66175;SDS011;52977;44.816;20.538;2024-02-04T12:33:22;4.85;;;1.75;;
66175;SDS011;52977;44.816;20.538;2024-02-04T12:35:51;3.65;;;1.48;;
66175;SDS011;52977;44.816;20.538;2024-02-04T12:38:18;3.00;;;1.30;;
66175;SDS011;52977;44.816;20.538;2024-02-04T12:40:44;2.28;;;1.00;;
66175;SDS011;52977;44.816;20.538;2024-02-04T12:43:10;3.05;;;1.10;;
66175;SDS011;52977;44.816;20.538;2024-02-04T12:45:37;4.93;;;1.30;;
66175;SDS011;52977;44.816;20.538;2024-02-04T12:48:03;2.72;;;1.20;;
66175;SDS011;52977;44.816;20.538;2024-02-04T12:50:30;2.90;;;1.40;;
66175;SDS011;52977;44.816;20.538;2024-02-04T12:53:05;6.45;;;1.30;;
66175;SDS011;52977;44.816;20.538;2024-02-04T12:55:33;4.30;;;1.65;;
66175;SDS011;52977;44.816;20.538;2024-02-04T12:58:01;3.90;;;1.85;;
66175;SDS011;52977;44.816;20.538;2024-02-04T13:00:30;2.33;;;1.30;;
66175;SDS011;52977;44.816;20.538;2024-02-04T13:02:57;4.65;;;1.83;;
66175;SDS011;52977;44.816;20.538;2024-02-04T13:05:24;3.67;;;1.45;;
66175;SDS011;52977;44.816;20.538;2024-02-04T13:07:51;5.63;;;1.80;;
66175;SDS011;52977;44.816;20.538;2024-02-04T13:10:24;3.33;;;1.50;;
66175;SDS011;52977;44.816;20.538;2024-02-04T13:13:07;4.67;;;1.63;;
66175;SDS011;52977;44.816;20.538;2024-02-04T13:15:38;3.55;;;1.63;;
66175;SDS011;52977;44.816;20.538;2024-02-04T13:18:07;3.47;;;1.50;;
66175;SDS011;52977;44.816;20.538;2024-02-04T13:20:33;4.65;;;1.55;;
66175;SDS011;52977;44.816;20.538;2024-02-04T13:22:59;2.95;;;1.30;;
66175;SDS011;52977;44.816;20.538;2024-02-04T13:25:30;4.03;;;1.60;;
66175;SDS011;52977;44.816;20.538;2024-02-04T13:27:56;3.60;;;1.17;;
66175;SDS011;52977;44.816;20.538;2024-02-04T13:30:22;4.10;;;1.58;;
66175;SDS011;52977;44.816;20.538;2024-02-04T13:32:48;3.15;;;1.45;;
66175;SDS011;52977;44.816;20.538;2024-02-04T13:35:14;3.65;;;1.35;;
66175;SDS011;52977;44.816;20.538;2024-02-04T13:37:45;3.20;;;1.33;;
66175;SDS011;52977;44.816;20.538;2024-02-04T13:40:21;4.65;;;1.80;;
66175;SDS011;52977;44.816;20.538;2024-02-04T13:42:47;6.35;;;2.00;;
66175;SDS011;52977;44.816;20.538;2024-02-04T13:45:14;6.05;;;1.85;;
66175;SDS011;52977;44.816;20.538;2024-02-04T13:47:41;6.15;;;1.98;;
66175;SDS011;52977;44.816;20.538;2024-02-04T13:50:08;6.43;;;2.10;;
66175;SDS011;52977;44.816;20.538;2024-02-04T13:52:35;6.05;;;1.80;;
66175;SDS011;52977;44.816;20.538;2024-02-04T13:55:02;3.83;;;1.60;;
66175;SDS011;52977;44.816;20.538;2024-02-04T13:57:32;5.13;;;1.73;;
66175;SDS011;52977;44.816;20.538;2024-02-04T13:59:59;3.63;;;1.58;;
66175;SDS011;52977;44.816;20.538;2024-02-04T14:02:26;4.35;;;1.60;;
66175;SDS011;52977;44.816;20.538;2024-02-04T14:04:55;4.53;;;1.70;;
66175;SDS011;52977;44.816;20.538;2024-02-04T14:07:23;3.45;;;1.35;;
66175;SDS011;52977;44.816;20.538;2024-02-04T14:09:49;3.45;;;1.55;;
66175;SDS011;52977;44.816;20.538;2024-02-04T14:12:16;4.45;;;1.88;;
66175;SDS011;52977;44.816;20.538;2024-02-04T14:14:42;2.63;;;1.35;;
66175;SDS011;52977;44.816;20.538;2024-02-04T14:17:09;3.40;;;1.60;;
66175;SDS011;52977;44.816;20.538;2024-02-04T14:19:35;4.03;;;1.60;;
66175;SDS011;52977;44.816;20.538;2024-02-04T14:22:02;5.82;;;2.03;;
66175;SDS011;52977;44.816;20.538;2024-02-04T14:24:28;6.85;;;2.03;;
66175;SDS011;52977;44.816;20.538;2024-02-04T14:26:58;3.97;;;1.85;;
66175;SDS011;52977;44.816;20.538;2024-02-04T14:29:25;4.05;;;1.90;;
66175;SDS011;52977;44.816;20.538;2024-02-04T14:31:52;5.38;;;2.10;;
66175;SDS011;52977;44.816;20.538;2024-02-04T14:34:18;4.75;;;1.90;;
66175;SDS011;52977;44.816;20.538;2024-02-04T14:36:45;5.20;;;2.33;;
66175;SDS011;52977;44.816;20.538;2024-02-04T14:39:11;5.78;;;2.47;;